createdAt,value
2018-09-24T05:58:55.183Z,30
2018-09-24T05:59:38.120Z,29
2018-09-24T06:01:03.178Z,30
2018-09-24T06:02:08.638Z,29
2018-09-24T06:03:14.106Z,29
2018-09-24T06:04:19.634Z,29
2018-09-24T06:05:25.061Z,29
2018-09-24T06:06:30.266Z,29
2018-09-24T06:07:35.441Z,29
2018-09-24T06:08:40.924Z,28
2018-09-24T06:09:46.301Z,28
2018-09-24T06:10:51.508Z,28
2018-09-24T06:11:56.665Z,28
2018-09-24T06:13:02.104Z,28
2018-09-24T06:14:06.972Z,28
2018-09-24T06:15:11.879Z,28
2018-09-24T06:16:17.783Z,28
2018-09-24T06:17:23.219Z,28
2018-09-24T06:18:29.178Z,28
2018-09-24T06:19:34.332Z,28
2018-09-24T06:20:39.825Z,28
2018-09-24T06:21:45.510Z,28
2018-09-24T06:22:50.993Z,28
2018-09-24T06:23:56.156Z,28
2018-09-24T06:25:01.662Z,28
2018-09-24T06:26:06.049Z,28
2018-09-24T06:27:11.280Z,28
2018-09-24T06:28:17.071Z,28
2018-09-24T06:29:22.020Z,27
2018-09-24T06:30:27.479Z,28
2018-09-24T06:31:32.657Z,27
2018-09-24T06:32:37.837Z,27
2018-09-24T06:33:43.595Z,27
2018-09-24T06:34:48.794Z,27
2018-09-24T06:35:54.226Z,27
2018-09-24T06:36:59.647Z,27
2018-09-24T06:38:04.789Z,27
2018-09-24T06:39:10.313Z,27
2018-09-24T06:40:15.593Z,27
2018-09-24T06:41:20.200Z,27
2018-09-24T06:43:45.892Z,27
2018-09-24T06:44:51.115Z,27
2018-09-24T06:45:56.960Z,27
2018-09-24T06:47:02.146Z,27
2018-09-24T06:48:07.005Z,27
2018-09-24T06:49:12.518Z,27
2018-09-24T06:50:17.618Z,27
2018-09-24T06:51:23.051Z,27
2018-09-24T06:52:43.467Z,27
2018-09-24T06:53:48.433Z,27
2018-09-24T06:54:53.832Z,27
2018-09-24T06:55:58.781Z,27
2018-09-24T06:57:03.983Z,27
2018-09-24T06:58:09.726Z,27
2018-09-24T06:59:14.339Z,27
2018-09-24T07:00:19.261Z,27
2018-09-24T07:01:25.235Z,27
2018-09-24T07:02:30.729Z,27
2018-09-24T07:03:36.247Z,27
2018-09-24T07:04:41.223Z,27
2018-09-24T07:05:46.439Z,27
2018-09-24T07:06:51.505Z,27
2018-09-24T07:07:56.719Z,27
2018-09-24T07:09:02.175Z,27
2018-09-24T07:10:07.333Z,27
2018-09-24T07:11:12.252Z,27
2018-09-24T07:12:17.969Z,27
2018-09-24T07:13:23.343Z,27
2018-09-24T07:14:28.552Z,27
2018-09-24T07:15:34.053Z,27
2018-09-24T07:16:39.009Z,27
2018-09-24T07:17:43.932Z,27
2018-09-24T07:18:49.053Z,27
2018-09-24T07:19:53.927Z,27
2018-09-24T07:20:58.799Z,27
2018-09-24T07:22:04.426Z,27
2018-09-24T07:23:09.595Z,27
2018-09-24T07:24:15.065Z,27
2018-09-24T07:25:20.311Z,27
2018-09-24T07:26:25.267Z,27
2018-09-24T07:27:31.171Z,27
2018-09-24T07:28:36.189Z,27
2018-09-24T07:29:41.072Z,27
2018-09-24T07:30:46.865Z,27
2018-09-24T07:31:52.009Z,27
2018-09-24T07:32:57.259Z,27
2018-09-24T07:34:02.838Z,27
2018-09-24T07:35:07.493Z,27
2018-09-24T07:36:13.025Z,27
2018-09-24T07:37:18.248Z,27
2018-09-24T07:38:23.684Z,27
2018-09-24T07:39:28.789Z,27
2018-09-24T07:40:33.642Z,27
2018-09-24T07:41:39.084Z,27
2018-09-24T07:42:44.896Z,27
2018-09-24T07:43:49.781Z,27
2018-09-24T07:44:54.693Z,27
2018-09-24T07:46:00.039Z,27
2018-09-24T07:47:04.990Z,27
2018-09-24T07:48:10.157Z,27
2018-09-24T07:49:15.996Z,27
2018-09-24T07:50:20.694Z,27
2018-09-24T07:51:41.221Z,27
2018-09-24T07:52:45.881Z,27
2018-09-24T07:53:51.309Z,27
2018-09-24T07:54:56.723Z,27
2018-09-24T07:56:01.613Z,27
2018-09-24T07:57:06.483Z,27
2018-09-24T07:58:10.818Z,27
2018-09-24T07:59:16.269Z,27
2018-09-24T08:00:21.432Z,27
2018-09-24T08:01:27.127Z,27
2018-09-24T08:02:32.030Z,27
2018-09-24T08:03:37.716Z,27
2018-09-24T08:04:43.218Z,27
2018-09-24T08:05:48.125Z,27
2018-09-24T08:06:53.562Z,27
2018-09-24T08:07:59.170Z,27
2018-09-24T08:09:04.638Z,27
2018-09-24T08:10:10.094Z,27
2018-09-24T08:11:14.678Z,27
2018-09-24T08:12:20.107Z,27
2018-09-24T08:13:25.410Z,27
2018-09-24T08:14:30.825Z,27
2018-09-24T08:15:36.396Z,27
2018-09-24T08:16:41.601Z,27
2018-09-24T08:17:47.164Z,27
2018-09-24T08:18:52.622Z,27
2018-09-24T08:19:57.817Z,27
2018-09-24T08:21:02.732Z,27
2018-09-24T08:22:07.740Z,27
2018-09-24T08:23:13.249Z,27
2018-09-24T08:24:18.471Z,27
2018-09-24T08:25:24.061Z,27
2018-09-24T08:26:28.988Z,27
2018-09-24T08:27:34.548Z,27
2018-09-24T08:28:39.722Z,27
2018-09-24T08:29:45.233Z,27
2018-09-24T08:30:50.627Z,27
2018-09-24T08:31:55.578Z,27
2018-09-24T08:33:01.006Z,27
2018-09-24T08:34:06.473Z,27
2018-09-24T08:35:11.426Z,27
2018-09-24T08:36:16.385Z,27
2018-09-24T08:37:22.555Z,27
2018-09-24T08:38:27.127Z,27
2018-09-24T08:39:32.375Z,27
2018-09-24T08:40:37.261Z,27
2018-09-24T08:41:42.412Z,27
2018-09-24T08:42:47.760Z,27
2018-09-24T08:43:51.793Z,27
2018-09-24T08:44:57.318Z,27
2018-09-24T08:46:02.713Z,27
2018-09-24T08:47:08.142Z,27
2018-09-24T08:48:13.038Z,27
2018-09-24T08:49:19.384Z,27
2018-09-24T08:50:25.041Z,27
2018-09-24T08:51:30.996Z,27
2018-09-24T08:52:35.863Z,27
2018-09-24T08:53:41.040Z,27
2018-09-24T08:54:46.873Z,27
2018-09-24T08:55:52.107Z,27
2018-09-24T08:56:57.781Z,27
2018-09-24T08:58:02.610Z,27
2018-09-24T08:59:07.900Z,26
2018-09-24T09:00:13.354Z,27
2018-09-24T09:01:18.510Z,26
2018-09-24T09:02:23.960Z,26
2018-09-24T09:03:28.958Z,27
2018-09-24T09:04:34.388Z,26
2018-09-24T09:05:39.564Z,26
2018-09-24T09:06:45.269Z,26
2018-09-24T09:07:50.431Z,26
2018-09-24T09:08:55.626Z,26
2018-09-24T09:10:01.228Z,26
2018-09-24T09:11:05.849Z,26
2018-09-24T09:12:11.058Z,26
2018-09-24T09:13:16.368Z,26
2018-09-24T09:14:22.038Z,26
2018-09-24T09:15:27.556Z,26
2018-09-24T09:16:33.004Z,26
2018-09-24T09:17:38.573Z,26
2018-09-24T09:18:44.061Z,26
2018-09-24T09:19:49.285Z,26
2018-09-24T09:20:54.427Z,26
2018-09-24T09:21:59.904Z,26
2018-09-24T09:23:05.362Z,26
2018-09-24T09:24:10.698Z,26
2018-09-24T09:25:16.400Z,26
2018-09-24T09:26:21.596Z,26
2018-09-24T09:27:27.019Z,26
2018-09-24T09:28:32.446Z,26
2018-09-24T09:29:37.709Z,26
2018-09-24T09:30:42.853Z,26
2018-09-24T09:31:47.760Z,26
2018-09-24T09:32:53.181Z,26
2018-09-24T09:33:58.704Z,26
2018-09-24T09:35:03.886Z,26
2018-09-24T09:36:08.830Z,26
2018-09-24T09:37:13.904Z,26
2018-09-24T09:38:19.333Z,26
2018-09-24T09:39:23.676Z,26
2018-09-24T09:40:29.341Z,26
2018-09-24T09:41:34.852Z,26
2018-09-24T09:42:40.646Z,26
2018-09-24T09:43:46.126Z,26
2018-09-24T09:44:51.554Z,26
2018-09-24T09:45:56.952Z,26
2018-09-24T09:47:02.660Z,26
2018-09-24T09:48:07.838Z,26
2018-09-24T09:49:12.963Z,26
2018-09-24T09:50:17.909Z,26
2018-09-24T09:51:23.339Z,26
2018-09-24T09:52:28.921Z,26
2018-09-24T09:53:34.508Z,26
2018-09-24T09:54:40.731Z,26
2018-09-24T09:55:45.883Z,26
2018-09-24T09:56:50.786Z,26
2018-09-24T09:57:55.939Z,26
2018-09-24T09:59:01.161Z,26
2018-09-24T10:00:05.628Z,26
2018-09-24T10:01:11.166Z,25
2018-09-24T10:02:16.318Z,25
2018-09-24T10:03:21.750Z,25
2018-09-24T10:04:27.448Z,25
2018-09-24T10:05:32.108Z,26
2018-09-24T10:06:37.832Z,25
2018-09-24T10:07:42.798Z,26
2018-09-24T10:08:47.564Z,25
2018-09-24T10:09:53.335Z,26
2018-09-24T10:10:58.476Z,26
2018-09-24T10:12:04.004Z,25
2018-09-24T10:13:09.163Z,25
2018-09-24T10:14:14.318Z,25
2018-09-24T10:15:19.262Z,25
2018-09-24T10:16:24.945Z,25
2018-09-24T10:17:30.374Z,25
2018-09-24T10:18:35.776Z,25
2018-09-24T10:19:40.947Z,26
2018-09-24T10:20:46.372Z,26
2018-09-24T10:21:52.055Z,25
2018-09-24T10:22:57.506Z,25
2018-09-24T10:24:02.664Z,25
2018-09-24T10:25:08.481Z,25
2018-09-24T10:26:13.726Z,25
2018-09-24T10:27:19.165Z,25
2018-09-24T10:28:24.857Z,25
2018-09-24T10:29:30.054Z,25
2018-09-24T10:30:36.014Z,25
2018-09-24T10:31:40.875Z,25
2018-09-24T10:32:46.401Z,25
2018-09-24T10:33:52.333Z,25
2018-09-24T10:34:57.497Z,25
2018-09-24T10:36:02.429Z,25
2018-09-24T10:37:07.560Z,25
2018-09-24T10:38:12.704Z,25
2018-09-24T10:39:18.019Z,25
2018-09-24T10:40:23.826Z,25
2018-09-24T10:41:28.968Z,25
2018-09-24T10:42:34.377Z,25
2018-09-24T10:43:39.530Z,25
2018-09-24T10:44:44.453Z,25
2018-09-24T10:45:50.007Z,25
2018-09-24T10:46:54.975Z,25
2018-09-24T10:47:59.903Z,25
2018-09-24T10:49:05.318Z,25
2018-09-24T10:50:10.519Z,25
2018-09-24T10:51:16.034Z,25
2018-09-24T10:52:21.813Z,25
2018-09-24T10:53:26.686Z,25
2018-09-24T10:54:31.988Z,25
2018-09-24T10:55:36.888Z,25
2018-09-24T10:56:42.423Z,25
2018-09-24T10:57:47.685Z,25
2018-09-24T10:58:52.837Z,25
2018-09-24T10:59:57.993Z,25
2018-09-24T11:01:03.256Z,25
2018-09-24T11:02:08.142Z,25
2018-09-24T11:03:12.887Z,25
2018-09-24T11:04:18.466Z,25
2018-09-24T11:05:23.946Z,25
2018-09-24T11:06:29.157Z,25
2018-09-24T11:07:34.080Z,25
2018-09-24T11:08:39.237Z,25
2018-09-24T11:09:44.451Z,24
2018-09-24T11:10:49.601Z,24
2018-09-24T11:11:54.860Z,24
2018-09-24T11:13:00.278Z,24
2018-09-24T11:14:05.756Z,24
2018-09-24T11:15:11.237Z,24
2018-09-24T11:16:17.213Z,24
2018-09-24T11:17:24.059Z,24
2018-09-24T11:18:31.440Z,24
2018-09-24T11:19:36.606Z,24
2018-09-24T11:20:41.988Z,24
2018-09-24T11:21:47.367Z,24
2018-09-24T11:22:52.940Z,24
2018-09-24T11:23:57.801Z,24
2018-09-24T11:25:02.114Z,24
2018-09-24T11:26:06.993Z,24
2018-09-24T11:27:12.219Z,24
2018-09-24T11:28:17.940Z,24
2018-09-24T11:29:23.572Z,24
2018-09-24T11:30:29.207Z,24
2018-09-24T11:31:34.082Z,24
2018-09-24T11:32:39.519Z,24
2018-09-24T11:33:45.419Z,24
2018-09-24T11:34:50.569Z,24
2018-09-24T11:35:55.998Z,24
2018-09-24T11:37:01.778Z,24
2018-09-24T11:38:06.999Z,24
2018-09-24T11:39:12.185Z,24
2018-09-24T11:40:18.029Z,24
2018-09-24T11:41:23.429Z,24
2018-09-24T11:42:28.934Z,24
2018-09-24T11:43:34.072Z,24
2018-09-24T11:44:38.713Z,24
2018-09-24T11:45:44.610Z,24
2018-09-24T11:46:49.387Z,24
2018-09-24T11:47:54.488Z,24
2018-09-24T11:49:00.159Z,24
2018-09-24T11:50:04.808Z,24
2018-09-24T11:51:09.703Z,24
2018-09-24T11:52:14.992Z,24
2018-09-24T11:53:20.141Z,24
2018-09-24T11:54:40.643Z,24
2018-09-24T11:55:45.844Z,24
2018-09-24T11:56:51.072Z,24
2018-09-24T11:57:56.237Z,24
2018-09-24T11:59:01.865Z,24
2018-09-24T12:00:06.475Z,24
2018-09-24T12:01:11.906Z,24
2018-09-24T12:02:16.810Z,24
2018-09-24T12:03:21.972Z,24
2018-09-24T12:04:27.522Z,24
2018-09-24T12:05:32.700Z,24
2018-09-24T12:06:38.232Z,24
2018-09-24T12:07:43.661Z,24
2018-09-24T12:08:49.129Z,24
2018-09-24T12:09:54.510Z,24
2018-09-24T12:10:59.940Z,24
2018-09-24T12:12:05.163Z,23
2018-09-24T12:13:10.858Z,23
2018-09-24T12:14:16.291Z,23
2018-09-24T12:15:21.207Z,23
2018-09-24T12:16:27.909Z,23
2018-09-24T12:17:33.702Z,23
2018-09-24T12:18:38.841Z,23
2018-09-24T12:19:44.145Z,23
2018-09-24T12:20:49.296Z,23
2018-09-24T12:21:54.838Z,23
2018-09-24T12:22:59.883Z,23
2018-09-24T12:24:04.782Z,23
2018-09-24T12:25:10.714Z,23
2018-09-24T12:26:15.903Z,23
2018-09-24T12:27:21.391Z,23
2018-09-24T12:28:27.328Z,23
2018-09-24T12:29:32.759Z,23
2018-09-24T12:30:38.320Z,23
2018-09-24T12:31:43.802Z,23
2018-09-24T12:32:48.954Z,23
2018-09-24T12:33:53.792Z,23
2018-09-24T12:34:59.003Z,23
2018-09-24T12:36:04.212Z,23
2018-09-24T12:37:10.176Z,23
2018-09-24T12:38:15.717Z,23
2018-09-24T12:39:20.906Z,23
2018-09-24T12:40:26.525Z,23
2018-09-24T12:41:31.953Z,23
2018-09-24T12:42:37.178Z,23
2018-09-24T12:43:42.609Z,23
2018-09-24T12:44:47.542Z,23
2018-09-24T12:45:52.447Z,23
2018-09-24T12:46:57.582Z,23
2018-09-24T12:48:03.018Z,23
2018-09-24T12:49:07.694Z,23
2018-09-24T12:50:13.183Z,23
2018-09-24T12:51:17.811Z,23
2018-09-24T12:52:22.952Z,23
2018-09-24T12:53:28.484Z,23
2018-09-24T12:54:34.577Z,23
2018-09-24T12:55:39.502Z,23
2018-09-24T12:56:44.375Z,23
2018-09-24T12:57:49.638Z,23
2018-09-24T12:58:54.798Z,23
2018-09-24T12:59:59.977Z,23
2018-09-24T13:01:05.142Z,23
2018-09-24T13:02:10.300Z,23
2018-09-24T13:03:15.197Z,23
2018-09-24T13:04:21.025Z,23
2018-09-24T13:05:26.505Z,23
2018-09-24T13:06:31.761Z,23
2018-09-24T13:07:36.675Z,23
2018-09-24T13:08:42.127Z,23
2018-09-24T13:09:47.914Z,23
2018-09-24T13:10:53.353Z,23
2018-09-24T13:11:58.506Z,23
2018-09-24T13:13:03.612Z,23
2018-09-24T13:14:08.550Z,23
2018-09-24T13:15:13.195Z,23
2018-09-24T13:16:18.420Z,23
2018-09-24T13:17:23.860Z,23
2018-09-24T13:18:29.480Z,22
2018-09-24T13:19:34.922Z,22
2018-09-24T13:20:40.361Z,22
2018-09-24T13:21:45.780Z,22
2018-09-24T13:22:50.643Z,22
2018-09-24T13:23:56.076Z,22
2018-09-24T13:25:01.920Z,22
2018-09-24T13:26:05.956Z,22
2018-09-24T13:27:11.383Z,23
2018-09-24T13:28:17.716Z,22
2018-09-24T13:29:23.187Z,23
2018-09-24T13:30:28.936Z,23
2018-09-24T13:31:33.810Z,23
2018-09-24T13:32:38.821Z,23
2018-09-24T13:33:44.916Z,23
2018-09-24T13:34:50.084Z,23
2018-09-24T13:35:55.749Z,23
2018-09-24T13:37:01.312Z,23
2018-09-24T13:38:06.784Z,23
2018-09-24T13:39:11.929Z,23
2018-09-24T13:40:17.047Z,23
2018-09-24T13:41:22.367Z,24
2018-09-24T13:42:27.296Z,24
2018-09-24T13:43:32.863Z,24
2018-09-24T13:44:38.590Z,24
2018-09-24T13:45:44.380Z,24
2018-09-24T13:46:49.831Z,24
2018-09-24T13:47:54.469Z,24
2018-09-24T13:49:00.144Z,24
2018-09-24T13:50:04.452Z,24
2018-09-24T13:51:09.695Z,24
2018-09-24T13:52:15.390Z,24
2018-09-24T13:53:20.300Z,24
2018-09-24T13:54:40.741Z,24
2018-09-24T13:55:45.928Z,24
2018-09-24T13:56:51.171Z,24
2018-09-24T13:57:56.657Z,24
2018-09-24T13:59:01.829Z,24
2018-09-24T14:00:07.082Z,24
2018-09-24T14:01:12.843Z,24
2018-09-24T14:02:17.431Z,24
2018-09-24T14:03:22.588Z,24
2018-09-24T14:04:27.994Z,24
2018-09-24T14:05:32.366Z,25
2018-09-24T14:06:38.177Z,24
2018-09-24T14:07:43.317Z,24
2018-09-24T14:08:48.504Z,25
2018-09-24T14:09:53.473Z,24
2018-09-24T14:10:58.122Z,25
2018-09-24T14:12:03.507Z,25
2018-09-24T14:13:09.383Z,25
2018-09-24T14:14:14.605Z,23
2018-09-24T14:15:20.096Z,23
2018-09-24T14:16:25.872Z,24
2018-09-24T14:17:31.508Z,24
2018-09-24T14:18:37.339Z,24
2018-09-24T14:19:42.935Z,24
2018-09-24T14:20:47.869Z,24
2018-09-24T14:21:53.363Z,24
2018-09-24T14:22:59.341Z,25
2018-09-24T14:24:04.490Z,24
2018-09-24T14:25:10.277Z,25
2018-09-24T14:26:15.462Z,25
2018-09-24T14:27:21.173Z,25
2018-09-24T14:28:41.026Z,25
2018-09-24T14:29:45.922Z,25
2018-09-24T14:30:51.403Z,25
2018-09-24T14:31:56.354Z,25
2018-09-24T14:33:01.220Z,25
2018-09-24T14:34:06.347Z,25
2018-09-24T14:35:12.071Z,25
2018-09-24T14:36:17.215Z,25
2018-09-24T14:37:22.643Z,25
2018-09-24T14:38:27.805Z,25
2018-09-24T14:39:33.653Z,25
2018-09-24T14:40:38.805Z,25
2018-09-24T14:41:43.840Z,25
2018-09-24T14:42:49.176Z,25
2018-09-24T14:43:54.444Z,25
2018-09-24T14:44:59.599Z,25
2018-09-24T14:46:05.136Z,25
2018-09-24T14:47:09.750Z,25
2018-09-24T14:48:15.097Z,25
2018-09-24T14:49:20.488Z,25
2018-09-24T14:50:26.190Z,25
2018-09-24T14:51:31.759Z,25
2018-09-24T14:52:37.208Z,25
2018-09-24T14:53:42.400Z,25
2018-09-24T14:54:47.519Z,25
2018-09-24T14:55:52.990Z,25
2018-09-24T14:56:58.483Z,25
2018-09-24T14:58:04.262Z,25
2018-09-24T14:59:09.408Z,25
2018-09-24T15:00:14.345Z,25
2018-09-24T15:01:19.474Z,25
2018-09-24T15:02:24.466Z,25
2018-09-24T15:03:30.069Z,25
2018-09-24T15:04:35.255Z,25
2018-09-24T15:05:40.121Z,24
2018-09-24T15:06:45.554Z,25
2018-09-24T15:07:50.985Z,24
2018-09-24T15:08:56.418Z,24
2018-09-24T15:10:01.627Z,24
2018-09-24T15:11:06.712Z,24
2018-09-24T15:12:11.607Z,24
2018-09-24T15:13:17.029Z,24
2018-09-24T15:14:22.235Z,25
2018-09-24T15:15:27.620Z,24
2018-09-24T15:16:32.774Z,24
2018-09-24T15:17:38.207Z,24
2018-09-24T15:18:43.484Z,24
2018-09-24T15:19:48.910Z,24
2018-09-24T15:20:53.875Z,24
2018-09-24T15:21:59.371Z,24
2018-09-24T15:23:04.670Z,24
2018-09-24T15:24:10.125Z,24
2018-09-24T15:25:15.618Z,24
2018-09-24T15:26:21.100Z,24
2018-09-24T15:27:26.640Z,24
2018-09-24T15:28:31.922Z,24
2018-09-24T15:29:37.073Z,24
2018-09-24T15:30:42.784Z,24
2018-09-24T15:31:47.386Z,24
2018-09-24T15:32:52.249Z,24
2018-09-24T15:33:57.295Z,24
2018-09-24T15:35:01.634Z,24
2018-09-24T15:36:06.784Z,24
2018-09-24T15:37:12.234Z,24
2018-09-24T15:38:17.660Z,25
2018-09-24T15:39:23.119Z,24
2018-09-24T15:40:28.760Z,24
2018-09-24T15:41:33.979Z,24
2018-09-24T15:42:39.725Z,24
2018-09-24T15:43:44.934Z,24
2018-09-24T15:44:50.407Z,24
2018-09-24T15:45:56.027Z,24
2018-09-24T15:47:01.321Z,24
2018-09-24T15:48:06.443Z,24
2018-09-24T15:49:12.281Z,24
2018-09-24T15:50:17.823Z,24
2018-09-24T15:51:23.023Z,24
2018-09-24T15:52:28.291Z,24
2018-09-24T15:53:33.450Z,24
2018-09-24T15:54:38.858Z,24
2018-09-24T15:55:44.011Z,24
2018-09-24T15:56:49.232Z,24
2018-09-24T15:57:54.586Z,24
2018-09-24T15:59:00.017Z,24
2018-09-24T16:00:04.976Z,23
2018-09-24T16:01:09.843Z,24
2018-09-24T16:02:15.281Z,24
2018-09-24T16:03:20.434Z,23
2018-09-24T16:04:40.485Z,23
2018-09-24T16:05:46.338Z,22
2018-09-24T16:06:51.766Z,22
2018-09-24T16:07:57.198Z,22
2018-09-24T16:09:02.171Z,21
2018-09-24T16:10:07.856Z,22
2018-09-24T16:11:12.821Z,22
2018-09-24T16:12:17.962Z,22
2018-09-24T16:13:23.134Z,22
2018-09-24T16:14:28.612Z,22
2018-09-24T16:15:33.744Z,22
2018-09-24T16:16:38.602Z,22
2018-09-24T16:17:43.775Z,22
2018-09-24T16:18:49.068Z,21
2018-09-24T16:19:54.317Z,22
2018-09-24T16:20:59.501Z,22
2018-09-24T16:22:04.968Z,21
2018-09-24T16:23:10.789Z,21
2018-09-24T16:24:15.939Z,21
2018-09-24T16:25:21.847Z,21
2018-09-24T16:26:26.989Z,21
2018-09-24T16:27:33.047Z,20
2018-09-24T16:28:38.578Z,21
2018-09-24T16:29:44.009Z,20
2018-09-24T16:30:49.696Z,20
2018-09-24T16:31:55.253Z,20
2018-09-24T16:33:00.434Z,21
2018-09-24T16:34:05.659Z,20
2018-09-24T16:35:10.818Z,20
2018-09-24T16:36:15.674Z,20
2018-09-24T16:37:20.835Z,20
2018-09-24T16:38:26.325Z,20
2018-09-24T16:39:32.147Z,20
2018-09-24T16:40:37.035Z,20
2018-09-24T16:41:42.161Z,20
2018-09-24T16:42:47.608Z,20
2018-09-24T16:43:53.044Z,20
2018-09-24T16:44:58.218Z,20
2018-09-24T16:46:03.330Z,20
2018-09-24T16:47:07.935Z,20
2018-09-24T16:48:13.270Z,20
2018-09-24T16:49:18.509Z,20
2018-09-24T16:50:23.670Z,20
2018-09-24T16:51:29.275Z,20
2018-09-24T16:52:34.595Z,20
2018-09-24T16:53:40.075Z,19
2018-09-24T16:54:45.642Z,20
2018-09-24T16:55:50.846Z,19
2018-09-24T16:56:55.808Z,19
2018-09-24T16:58:01.855Z,19
2018-09-24T16:59:07.058Z,19
2018-09-24T17:00:12.212Z,19
2018-09-24T17:01:17.916Z,19
2018-09-24T17:02:22.964Z,19
2018-09-24T17:03:28.475Z,19
2018-09-24T17:04:34.069Z,19
2018-09-24T17:05:39.529Z,19
2018-09-24T17:06:44.716Z,19
2018-09-24T17:07:49.871Z,19
2018-09-24T17:08:54.473Z,19
2018-09-24T17:09:59.941Z,19
2018-09-24T17:11:05.096Z,19
2018-09-24T17:12:10.698Z,19
2018-09-24T17:13:16.334Z,19
2018-09-24T17:14:21.866Z,19
2018-09-24T17:15:27.365Z,19
2018-09-24T17:16:32.835Z,20
2018-09-24T17:17:38.406Z,20
2018-09-24T17:18:43.495Z,20
2018-09-24T17:19:48.113Z,20
2018-09-24T17:20:53.584Z,20
2018-09-24T17:21:59.304Z,20
2018-09-24T17:23:04.163Z,20
2018-09-24T17:24:09.084Z,20
2018-09-24T17:25:14.287Z,20
2018-09-24T17:26:19.438Z,20
2018-09-24T17:27:24.360Z,20
2018-09-24T17:28:44.484Z,20
2018-09-24T17:29:49.964Z,20
2018-09-24T17:30:55.392Z,20
2018-09-24T17:32:00.820Z,20
2018-09-24T17:33:06.004Z,20
2018-09-24T17:34:11.501Z,20
2018-09-24T17:35:16.712Z,20
2018-09-24T17:36:22.114Z,20
2018-09-24T17:37:28.167Z,20
2018-09-24T17:38:32.767Z,20
2018-09-24T17:39:38.197Z,20
2018-09-24T17:40:43.682Z,21
2018-09-24T17:41:49.188Z,21
2018-09-24T17:42:54.669Z,21
2018-09-24T17:43:59.316Z,21
2018-09-24T17:45:03.903Z,21
2018-09-24T17:46:09.603Z,21
2018-09-24T17:47:15.113Z,21
2018-09-24T17:48:19.978Z,21
2018-09-24T17:49:25.468Z,21
2018-09-24T17:50:30.626Z,21
2018-09-24T17:51:36.459Z,21
2018-09-24T17:52:41.403Z,21
2018-09-24T17:53:46.347Z,21
2018-09-24T17:54:51.476Z,21
2018-09-24T17:55:56.905Z,21
2018-09-24T17:57:02.361Z,21
2018-09-24T17:58:07.795Z,21
2018-09-24T17:59:12.674Z,21
2018-09-24T18:00:18.193Z,21
2018-09-24T18:01:23.409Z,21
2018-09-24T18:02:28.837Z,21
2018-09-24T18:03:33.972Z,21
2018-09-24T18:04:39.411Z,21
2018-09-24T18:05:44.408Z,21
2018-09-24T18:06:50.156Z,21
2018-09-24T18:07:55.027Z,21
2018-09-24T18:08:59.925Z,21
2018-09-24T18:10:05.170Z,21
2018-09-24T18:11:10.669Z,21
2018-09-24T18:12:15.583Z,21
2018-09-24T18:13:21.277Z,21
2018-09-24T18:14:26.793Z,21
2018-09-24T18:15:32.630Z,21
2018-09-24T18:16:37.548Z,21
2018-09-24T18:17:42.241Z,21
2018-09-24T18:18:48.199Z,21
2018-09-24T18:19:53.406Z,21
2018-09-24T18:20:58.561Z,21
2018-09-24T18:22:04.296Z,21
2018-09-24T18:23:09.202Z,21
2018-09-24T18:24:14.634Z,21
2018-09-24T18:25:19.842Z,21
2018-09-24T18:26:24.934Z,21
2018-09-24T18:27:30.671Z,21
2018-09-24T18:28:35.825Z,21
2018-09-24T18:29:41.265Z,21
2018-09-24T18:30:46.709Z,22
2018-09-24T18:31:51.844Z,22
2018-09-24T18:32:57.087Z,21
2018-09-24T18:34:02.620Z,22
2018-09-24T18:35:08.055Z,22
2018-09-24T18:36:13.505Z,22
2018-09-24T18:37:19.106Z,22
2018-09-24T18:38:25.521Z,22
2018-09-24T18:39:31.074Z,22
2018-09-24T18:40:36.218Z,22
2018-09-24T18:41:41.440Z,22
2018-09-24T18:42:46.899Z,22
2018-09-24T18:43:52.346Z,22
2018-09-24T18:44:56.735Z,22
2018-09-24T18:46:01.840Z,22
2018-09-24T18:47:05.971Z,22
2018-09-24T18:48:10.892Z,22
2018-09-24T18:49:16.522Z,22
2018-09-24T18:50:21.670Z,22
2018-09-24T18:51:27.605Z,22
2018-09-24T18:52:32.851Z,22
2018-09-24T18:53:37.730Z,22
2018-09-24T18:54:43.534Z,22
2018-09-24T18:55:48.819Z,22
2018-09-24T18:56:53.995Z,22
2018-09-24T18:57:59.822Z,22
2018-09-24T18:59:04.746Z,22
2018-09-24T19:00:09.921Z,22
2018-09-24T19:01:15.317Z,22
2018-09-24T19:02:20.796Z,22
2018-09-24T19:03:26.661Z,22
2018-09-24T19:04:31.913Z,22
2018-09-24T19:05:37.169Z,22
2018-09-24T19:06:42.605Z,22
2018-09-24T19:07:47.549Z,22
2018-09-24T19:08:53.054Z,22
2018-09-24T19:09:58.582Z,22
2018-09-24T19:11:04.010Z,22
2018-09-24T19:12:09.601Z,22
2018-09-24T19:13:14.815Z,22
2018-09-24T19:14:20.260Z,22
2018-09-24T19:15:26.361Z,22
2018-09-24T19:16:31.509Z,22
2018-09-24T19:17:36.941Z,22
2018-09-24T19:18:41.807Z,22
2018-09-24T19:19:47.238Z,22
2018-09-24T19:20:52.401Z,22
2018-09-24T19:21:58.106Z,22
2018-09-24T19:23:03.012Z,22
2018-09-24T19:24:08.169Z,22
2018-09-24T19:25:13.611Z,22
2018-09-24T19:26:18.515Z,22
2018-09-24T19:27:23.969Z,22
2018-09-24T19:28:44.828Z,22
2018-09-24T19:29:50.262Z,22
2018-09-24T19:30:56.067Z,22
2018-09-24T19:32:01.207Z,22
2018-09-24T19:33:05.839Z,22
2018-09-24T19:34:11.672Z,22
2018-09-24T19:35:17.033Z,22
2018-09-24T19:36:22.205Z,22
2018-09-24T19:37:28.213Z,22
2018-09-24T19:38:32.785Z,22
2018-09-24T19:39:38.389Z,22
2018-09-24T19:40:43.529Z,22
2018-09-24T19:41:48.680Z,22
2018-09-24T19:42:54.386Z,22
2018-09-24T19:43:59.875Z,22
2018-09-24T19:45:05.067Z,22
2018-09-24T19:46:10.256Z,22
2018-09-24T19:47:15.430Z,22
2018-09-24T19:48:20.596Z,22
2018-09-24T19:49:40.736Z,22
2018-09-24T19:50:46.165Z,22
2018-09-24T19:51:51.611Z,22
2018-09-24T19:52:56.874Z,22
2018-09-24T19:54:02.412Z,22
2018-09-24T19:55:07.552Z,22
2018-09-24T19:56:12.731Z,22
2018-09-24T19:57:17.920Z,22
2018-09-24T19:58:23.497Z,22
2018-09-24T19:59:28.377Z,22
2018-09-24T20:00:33.921Z,22
2018-09-24T20:01:38.847Z,22
2018-09-24T20:02:44.467Z,22
2018-09-24T20:03:49.462Z,22
2018-09-24T20:04:54.046Z,22
2018-09-24T20:05:59.189Z,22
2018-09-24T20:07:04.971Z,22
2018-09-24T20:08:10.404Z,22
2018-09-24T20:09:15.362Z,22
2018-09-24T20:10:20.838Z,22
2018-09-24T20:11:26.411Z,22
2018-09-24T20:12:32.024Z,22
2018-09-24T20:13:37.180Z,22
2018-09-24T20:14:42.074Z,22
2018-09-24T20:15:47.611Z,22
2018-09-24T20:16:52.780Z,22
2018-09-24T20:17:58.377Z,22
2018-09-24T20:19:03.889Z,22
2018-09-24T20:20:09.348Z,22
2018-09-24T20:21:14.782Z,22
2018-09-24T20:22:20.289Z,22
2018-09-24T20:23:25.450Z,22
2018-09-24T20:24:31.551Z,22
2018-09-24T20:25:36.531Z,22
2018-09-24T20:26:41.797Z,22
2018-09-24T20:27:47.602Z,22
2018-09-24T20:28:52.812Z,22
2018-09-24T20:29:57.743Z,22
2018-09-24T20:31:03.157Z,22
2018-09-24T20:32:08.380Z,22
2018-09-24T20:33:13.518Z,22
2018-09-24T20:34:18.395Z,22
2018-09-24T20:35:23.842Z,22
2018-09-24T20:36:29.633Z,22
2018-09-24T20:37:34.784Z,22
2018-09-24T20:38:40.233Z,22
2018-09-24T20:39:45.353Z,22
2018-09-24T20:40:50.766Z,22
2018-09-24T20:41:56.222Z,22
2018-09-24T20:43:01.797Z,22
2018-09-24T20:44:07.149Z,22
2018-09-24T20:45:12.661Z,22
2018-09-24T20:46:18.428Z,22
2018-09-24T20:47:23.228Z,22
2018-09-24T20:48:29.253Z,22
2018-09-24T20:49:34.120Z,22
2018-09-24T20:50:38.697Z,22
2018-09-24T20:51:43.821Z,22
2018-09-24T20:52:48.743Z,22
2018-09-24T20:53:54.279Z,22
2018-09-24T20:54:59.842Z,23
2018-09-24T20:56:04.709Z,22
2018-09-24T20:57:10.167Z,22
2018-09-24T20:58:15.382Z,22
2018-09-24T20:59:19.426Z,23
2018-09-24T21:00:24.644Z,22
2018-09-24T21:01:44.517Z,22
2018-09-24T21:02:49.675Z,22
2018-09-24T21:03:55.531Z,23
2018-09-24T21:05:00.674Z,23
2018-09-24T21:06:05.560Z,23
2018-09-24T21:07:11.053Z,23
2018-09-24T21:08:16.210Z,23
2018-09-24T21:09:21.643Z,23
2018-09-24T21:10:27.471Z,23
2018-09-24T21:11:32.329Z,23
2018-09-24T21:12:37.579Z,23
2018-09-24T21:13:42.801Z,23
2018-09-24T21:14:47.953Z,23
2018-09-24T21:15:53.059Z,23
2018-09-24T21:16:58.135Z,23
2018-09-24T21:18:03.214Z,23
2018-09-24T21:19:08.372Z,23
2018-09-24T21:20:13.537Z,23
2018-09-24T21:21:18.976Z,23
2018-09-24T21:22:24.697Z,23
2018-09-24T21:23:30.129Z,23
2018-09-24T21:24:35.916Z,23
2018-09-24T21:25:41.378Z,23
2018-09-24T21:26:46.535Z,23
2018-09-24T21:27:51.182Z,23
2018-09-24T21:28:56.055Z,23
2018-09-24T21:30:00.452Z,23
2018-09-24T21:31:05.908Z,23
2018-09-24T21:32:11.328Z,23
2018-09-24T21:33:16.753Z,23